METAR Data
IDs: Format: Raw Decoded Include TAF

Data at: 0205 UTC 24 Jun 2021

METAR for:KAOH (Lima/Allen Cnty, OH, US)
Text:KAOH 240153Z AUTO 16008KT 10SM CLR 21/11 A3014 RMK AO2 SLP203 T02060106
Temperature: 20.6°C ( 69°F)
Dewpoint: 10.6°C ( 51°F) [RH = 53%]
Pressure (altimeter):30.14 inches Hg (1020.7 mb) [Sea level pressure: 1020.3 mb]
Winds:from the SSE (160 degrees) at 9 MPH (8 knots; 4.1 m/s)
Visibility:10 or more sm (16+ km)
Ceiling:at least 12,000 feet AGL
Clouds:sky clear below 12,000 feet AGL
QC Flag:automated observation with no human augmentation